sensor_id;sensor_type;location;lat;lon;timestamp;P1;durP1;ratioP1;P2;durP2;ratioP2
53835;SDS011;39737;43.334;21.936;2023-10-31T00:00:36;6.85;;;2.22;;
53835;SDS011;39737;43.334;21.936;2023-10-31T00:03:22;2.53;;;1.52;;
53835;SDS011;39737;43.334;21.936;2023-10-31T00:06:09;3.22;;;1.17;;
53835;SDS011;39737;43.334;21.936;2023-10-31T00:08:56;3.70;;;1.35;;
53835;SDS011;39737;43.334;21.936;2023-10-31T00:11:43;4.93;;;1.25;;
53835;SDS011;39737;43.334;21.936;2023-10-31T00:14:29;6.22;;;1.90;;
53835;SDS011;39737;43.334;21.936;2023-10-31T00:17:17;1.92;;;1.65;;
53835;SDS011;39737;43.334;21.936;2023-10-31T00:20:06;2.15;;;1.73;;
53835;SDS011;39737;43.334;21.936;2023-10-31T00:22:53;5.75;;;1.42;;
53835;SDS011;39737;43.334;21.936;2023-10-31T00:25:45;1.15;;;0.93;;
53835;SDS011;39737;43.334;21.936;2023-10-31T00:28:35;1.63;;;1.17;;
53835;SDS011;39737;43.334;21.936;2023-10-31T00:31:21;1.05;;;0.95;;
53835;SDS011;39737;43.334;21.936;2023-10-31T00:34:09;2.05;;;1.33;;
53835;SDS011;39737;43.334;21.936;2023-10-31T00:36:56;7.03;;;1.65;;
53835;SDS011;39737;43.334;21.936;2023-10-31T00:39:42;1.90;;;0.95;;
53835;SDS011;39737;43.334;21.936;2023-10-31T00:42:29;2.65;;;1.65;;
53835;SDS011;39737;43.334;21.936;2023-10-31T00:45:17;3.90;;;1.25;;
53835;SDS011;39737;43.334;21.936;2023-10-31T00:48:05;1.48;;;1.00;;
53835;SDS011;39737;43.334;21.936;2023-10-31T00:50:52;1.90;;;1.30;;
53835;SDS011;39737;43.334;21.936;2023-10-31T00:53:39;2.03;;;1.27;;
53835;SDS011;39737;43.334;21.936;2023-10-31T00:56:25;1.20;;;1.10;;
53835;SDS011;39737;43.334;21.936;2023-10-31T00:59:12;3.15;;;1.70;;
53835;SDS011;39737;43.334;21.936;2023-10-31T01:01:57;2.97;;;1.45;;
53835;SDS011;39737;43.334;21.936;2023-10-31T01:04:43;3.55;;;1.90;;
53835;SDS011;39737;43.334;21.936;2023-10-31T01:07:30;2.85;;;1.67;;
53835;SDS011;39737;43.334;21.936;2023-10-31T01:10:16;2.72;;;1.42;;
53835;SDS011;39737;43.334;21.936;2023-10-31T01:13:02;3.28;;;1.25;;
53835;SDS011;39737;43.334;21.936;2023-10-31T01:15:48;1.20;;;1.10;;
53835;SDS011;39737;43.334;21.936;2023-10-31T01:18:34;3.42;;;1.52;;
53835;SDS011;39737;43.334;21.936;2023-10-31T01:21:21;2.13;;;1.30;;
53835;SDS011;39737;43.334;21.936;2023-10-31T01:24:07;4.97;;;1.55;;
53835;SDS011;39737;43.334;21.936;2023-10-31T01:26:53;3.53;;;1.55;;
53835;SDS011;39737;43.334;21.936;2023-10-31T01:29:39;3.30;;;1.52;;
53835;SDS011;39737;43.334;21.936;2023-10-31T01:32:28;4.03;;;1.90;;
53835;SDS011;39737;43.334;21.936;2023-10-31T01:35:14;4.63;;;1.88;;
53835;SDS011;39737;43.334;21.936;2023-10-31T01:38:01;5.50;;;2.33;;
53835;SDS011;39737;43.334;21.936;2023-10-31T01:40:49;3.42;;;2.10;;
53835;SDS011;39737;43.334;21.936;2023-10-31T01:43:37;4.63;;;1.95;;
53835;SDS011;39737;43.334;21.936;2023-10-31T01:46:23;4.43;;;1.52;;
53835;SDS011;39737;43.334;21.936;2023-10-31T01:49:09;2.00;;;1.70;;
53835;SDS011;39737;43.334;21.936;2023-10-31T01:51:55;5.03;;;1.80;;
53835;SDS011;39737;43.334;21.936;2023-10-31T01:54:42;5.30;;;2.08;;
53835;SDS011;39737;43.334;21.936;2023-10-31T01:57:29;7.80;;;2.28;;
53835;SDS011;39737;43.334;21.936;2023-10-31T02:00:15;3.03;;;1.73;;
53835;SDS011;39737;43.334;21.936;2023-10-31T02:03:02;4.90;;;1.65;;
53835;SDS011;39737;43.334;21.936;2023-10-31T02:05:50;3.95;;;2.17;;
53835;SDS011;39737;43.334;21.936;2023-10-31T02:08:38;4.55;;;1.70;;
53835;SDS011;39737;43.334;21.936;2023-10-31T02:11:26;5.88;;;2.17;;
53835;SDS011;39737;43.334;21.936;2023-10-31T02:14:12;3.90;;;2.22;;
53835;SDS011;39737;43.334;21.936;2023-10-31T02:16:58;3.08;;;1.73;;
53835;SDS011;39737;43.334;21.936;2023-10-31T02:19:44;5.10;;;1.75;;
53835;SDS011;39737;43.334;21.936;2023-10-31T02:22:30;1.65;;;1.48;;
53835;SDS011;39737;43.334;21.936;2023-10-31T02:25:17;3.22;;;1.63;;
53835;SDS011;39737;43.334;21.936;2023-10-31T02:28:04;2.63;;;1.58;;
53835;SDS011;39737;43.334;21.936;2023-10-31T02:30:50;4.65;;;1.63;;
53835;SDS011;39737;43.334;21.936;2023-10-31T02:33:55;3.95;;;1.15;;
53835;SDS011;39737;43.334;21.936;2023-10-31T02:36:41;4.13;;;1.48;;
53835;SDS011;39737;43.334;21.936;2023-10-31T02:39:28;2.97;;;1.40;;
53835;SDS011;39737;43.334;21.936;2023-10-31T02:42:14;3.22;;;1.55;;
53835;SDS011;39737;43.334;21.936;2023-10-31T02:45:00;5.68;;;2.20;;
53835;SDS011;39737;43.334;21.936;2023-10-31T02:47:47;7.93;;;1.98;;
53835;SDS011;39737;43.334;21.936;2023-10-31T02:50:33;3.03;;;1.60;;
53835;SDS011;39737;43.334;21.936;2023-10-31T02:56:31;4.03;;;1.40;;
53835;SDS011;39737;43.334;21.936;2023-10-31T02:59:17;3.47;;;1.40;;
53835;SDS011;39737;43.334;21.936;2023-10-31T03:02:08;4.05;;;1.40;;
53835;SDS011;39737;43.334;21.936;2023-10-31T03:04:55;8.73;;;1.50;;
53835;SDS011;39737;43.334;21.936;2023-10-31T03:07:41;7.03;;;1.77;;
53835;SDS011;39737;43.334;21.936;2023-10-31T03:10:28;3.58;;;1.48;;
53835;SDS011;39737;43.334;21.936;2023-10-31T03:13:15;2.55;;;1.30;;
53835;SDS011;39737;43.334;21.936;2023-10-31T03:16:04;2.13;;;1.33;;
53835;SDS011;39737;43.334;21.936;2023-10-31T03:18:50;3.65;;;1.70;;
53835;SDS011;39737;43.334;21.936;2023-10-31T03:21:37;3.42;;;1.65;;
53835;SDS011;39737;43.334;21.936;2023-10-31T03:24:39;3.33;;;1.45;;
53835;SDS011;39737;43.334;21.936;2023-10-31T03:27:26;7.13;;;2.00;;
53835;SDS011;39737;43.334;21.936;2023-10-31T03:30:12;3.08;;;1.42;;
53835;SDS011;39737;43.334;21.936;2023-10-31T03:32:58;2.47;;;1.40;;
53835;SDS011;39737;43.334;21.936;2023-10-31T03:35:46;6.40;;;1.52;;
53835;SDS011;39737;43.334;21.936;2023-10-31T03:45:48;1.80;;;1.25;;
53835;SDS011;39737;43.334;21.936;2023-10-31T03:51:54;1.52;;;1.23;;
53835;SDS011;39737;43.334;21.936;2023-10-31T03:54:44;11.25;;;1.88;;
53835;SDS011;39737;43.334;21.936;2023-10-31T03:57:30;3.28;;;1.58;;
53835;SDS011;39737;43.334;21.936;2023-10-31T04:00:40;7.80;;;3.35;;
53835;SDS011;39737;43.334;21.936;2023-10-31T04:03:28;18.10;;;5.07;;
53835;SDS011;39737;43.334;21.936;2023-10-31T04:06:14;5.97;;;3.47;;
53835;SDS011;39737;43.334;21.936;2023-10-31T04:09:16;3.63;;;2.53;;
53835;SDS011;39737;43.334;21.936;2023-10-31T04:12:12;3.42;;;2.20;;
53835;SDS011;39737;43.334;21.936;2023-10-31T04:14:59;5.15;;;2.38;;
53835;SDS011;39737;43.334;21.936;2023-10-31T04:17:45;7.47;;;2.50;;
53835;SDS011;39737;43.334;21.936;2023-10-31T04:20:44;7.30;;;2.15;;
53835;SDS011;39737;43.334;21.936;2023-10-31T04:23:34;5.65;;;2.08;;
53835;SDS011;39737;43.334;21.936;2023-10-31T04:29:34;3.40;;;2.47;;
53835;SDS011;39737;43.334;21.936;2023-10-31T04:32:19;4.97;;;2.10;;
53835;SDS011;39737;43.334;21.936;2023-10-31T04:35:31;3.50;;;1.52;;
53835;SDS011;39737;43.334;21.936;2023-10-31T04:38:17;9.20;;;2.10;;
53835;SDS011;39737;43.334;21.936;2023-10-31T04:41:04;4.63;;;2.50;;
53835;SDS011;39737;43.334;21.936;2023-10-31T04:44:09;3.00;;;1.77;;
53835;SDS011;39737;43.334;21.936;2023-10-31T04:46:56;9.32;;;2.65;;
53835;SDS011;39737;43.334;21.936;2023-10-31T04:49:42;3.88;;;1.98;;
53835;SDS011;39737;43.334;21.936;2023-10-31T04:52:28;5.63;;;2.63;;
53835;SDS011;39737;43.334;21.936;2023-10-31T04:55:22;10.35;;;2.63;;
53835;SDS011;39737;43.334;21.936;2023-10-31T04:58:08;9.93;;;4.38;;
53835;SDS011;39737;43.334;21.936;2023-10-31T05:00:55;6.10;;;2.35;;
53835;SDS011;39737;43.334;21.936;2023-10-31T05:07:13;15.95;;;8.15;;
53835;SDS011;39737;43.334;21.936;2023-10-31T05:13:13;9.75;;;4.88;;
53835;SDS011;39737;43.334;21.936;2023-10-31T05:16:20;4.50;;;3.45;;
53835;SDS011;39737;43.334;21.936;2023-10-31T05:19:29;4.28;;;3.00;;
53835;SDS011;39737;43.334;21.936;2023-10-31T05:22:48;7.03;;;4.05;;
53835;SDS011;39737;43.334;21.936;2023-10-31T05:29:27;4.15;;;2.80;;
53835;SDS011;39737;43.334;21.936;2023-10-31T05:32:17;3.85;;;2.10;;
53835;SDS011;39737;43.334;21.936;2023-10-31T05:35:03;4.90;;;2.85;;
53835;SDS011;39737;43.334;21.936;2023-10-31T05:37:49;5.65;;;2.83;;
53835;SDS011;39737;43.334;21.936;2023-10-31T05:40:36;6.05;;;1.95;;
53835;SDS011;39737;43.334;21.936;2023-10-31T05:43:23;2.85;;;1.88;;
53835;SDS011;39737;43.334;21.936;2023-10-31T05:46:09;2.90;;;1.30;;
53835;SDS011;39737;43.334;21.936;2023-10-31T05:48:56;4.72;;;1.35;;
53835;SDS011;39737;43.334;21.936;2023-10-31T05:51:44;4.97;;;1.70;;
53835;SDS011;39737;43.334;21.936;2023-10-31T05:54:34;5.50;;;1.90;;
53835;SDS011;39737;43.334;21.936;2023-10-31T05:57:20;4.80;;;1.45;;
53835;SDS011;39737;43.334;21.936;2023-10-31T06:00:08;3.88;;;1.20;;
53835;SDS011;39737;43.334;21.936;2023-10-31T06:02:57;3.17;;;1.30;;
53835;SDS011;39737;43.334;21.936;2023-10-31T06:05:44;7.50;;;1.73;;
53835;SDS011;39737;43.334;21.936;2023-10-31T06:08:31;5.43;;;1.90;;
53835;SDS011;39737;43.334;21.936;2023-10-31T06:11:18;4.57;;;1.67;;
53835;SDS011;39737;43.334;21.936;2023-10-31T06:14:06;3.63;;;1.63;;
53835;SDS011;39737;43.334;21.936;2023-10-31T06:16:52;2.22;;;1.33;;
53835;SDS011;39737;43.334;21.936;2023-10-31T06:19:38;2.22;;;1.25;;
53835;SDS011;39737;43.334;21.936;2023-10-31T06:22:33;6.63;;;1.23;;
53835;SDS011;39737;43.334;21.936;2023-10-31T06:25:19;2.67;;;1.92;;
53835;SDS011;39737;43.334;21.936;2023-10-31T06:28:05;6.50;;;1.67;;
53835;SDS011;39737;43.334;21.936;2023-10-31T06:30:51;3.30;;;1.83;;
53835;SDS011;39737;43.334;21.936;2023-10-31T06:33:37;7.60;;;2.03;;
53835;SDS011;39737;43.334;21.936;2023-10-31T06:36:23;1.95;;;1.35;;
53835;SDS011;39737;43.334;21.936;2023-10-31T06:39:09;3.38;;;1.63;;
53835;SDS011;39737;43.334;21.936;2023-10-31T06:41:55;3.40;;;2.00;;
53835;SDS011;39737;43.334;21.936;2023-10-31T06:44:42;6.25;;;1.98;;
53835;SDS011;39737;43.334;21.936;2023-10-31T06:47:28;2.45;;;1.45;;
53835;SDS011;39737;43.334;21.936;2023-10-31T06:50:14;7.60;;;1.48;;
53835;SDS011;39737;43.334;21.936;2023-10-31T06:53:04;2.05;;;1.13;;
53835;SDS011;39737;43.334;21.936;2023-10-31T06:55:50;5.55;;;2.25;;
53835;SDS011;39737;43.334;21.936;2023-10-31T06:58:37;2.33;;;1.20;;
53835;SDS011;39737;43.334;21.936;2023-10-31T07:01:23;12.30;;;2.78;;
53835;SDS011;39737;43.334;21.936;2023-10-31T07:04:09;12.63;;;3.13;;
53835;SDS011;39737;43.334;21.936;2023-10-31T07:06:56;1.90;;;1.20;;
53835;SDS011;39737;43.334;21.936;2023-10-31T07:09:43;2.47;;;1.05;;
53835;SDS011;39737;43.334;21.936;2023-10-31T07:12:30;5.78;;;1.63;;
53835;SDS011;39737;43.334;21.936;2023-10-31T07:15:16;3.17;;;1.15;;
53835;SDS011;39737;43.334;21.936;2023-10-31T07:18:02;1.33;;;1.00;;
53835;SDS011;39737;43.334;21.936;2023-10-31T07:20:50;8.00;;;1.95;;
53835;SDS011;39737;43.334;21.936;2023-10-31T07:23:36;6.57;;;1.73;;
53835;SDS011;39737;43.334;21.936;2023-10-31T07:26:23;3.35;;;1.92;;
53835;SDS011;39737;43.334;21.936;2023-10-31T07:29:09;2.70;;;0.98;;
53835;SDS011;39737;43.334;21.936;2023-10-31T07:31:55;2.13;;;0.93;;
53835;SDS011;39737;43.334;21.936;2023-10-31T07:34:42;1.75;;;0.80;;
53835;SDS011;39737;43.334;21.936;2023-10-31T07:37:28;4.57;;;0.77;;
53835;SDS011;39737;43.334;21.936;2023-10-31T07:40:14;3.30;;;1.02;;
53835;SDS011;39737;43.334;21.936;2023-10-31T07:43:00;2.88;;;0.80;;
53835;SDS011;39737;43.334;21.936;2023-10-31T07:45:46;2.83;;;1.23;;
53835;SDS011;39737;43.334;21.936;2023-10-31T07:48:33;4.93;;;1.00;;
53835;SDS011;39737;43.334;21.936;2023-10-31T07:51:19;2.47;;;1.02;;
53835;SDS011;39737;43.334;21.936;2023-10-31T07:54:05;2.78;;;1.20;;
53835;SDS011;39737;43.334;21.936;2023-10-31T07:56:52;4.43;;;1.85;;
53835;SDS011;39737;43.334;21.936;2023-10-31T07:59:37;4.63;;;1.50;;
53835;SDS011;39737;43.334;21.936;2023-10-31T08:02:24;6.45;;;1.33;;
53835;SDS011;39737;43.334;21.936;2023-10-31T08:05:10;3.42;;;1.70;;
53835;SDS011;39737;43.334;21.936;2023-10-31T08:07:58;1.90;;;1.10;;
53835;SDS011;39737;43.334;21.936;2023-10-31T08:10:44;2.70;;;1.20;;
53835;SDS011;39737;43.334;21.936;2023-10-31T08:13:31;0.80;;;0.77;;
53835;SDS011;39737;43.334;21.936;2023-10-31T08:16:17;4.70;;;1.35;;
53835;SDS011;39737;43.334;21.936;2023-10-31T08:19:05;4.75;;;1.35;;
53835;SDS011;39737;43.334;21.936;2023-10-31T08:21:51;1.42;;;1.00;;
53835;SDS011;39737;43.334;21.936;2023-10-31T08:24:40;6.97;;;1.20;;
53835;SDS011;39737;43.334;21.936;2023-10-31T08:27:26;7.03;;;1.20;;
53835;SDS011;39737;43.334;21.936;2023-10-31T08:30:12;5.07;;;1.35;;
53835;SDS011;39737;43.334;21.936;2023-10-31T08:32:58;4.60;;;1.40;;
53835;SDS011;39737;43.334;21.936;2023-10-31T08:35:45;7.72;;;1.50;;
53835;SDS011;39737;43.334;21.936;2023-10-31T08:38:31;12.45;;;2.03;;
53835;SDS011;39737;43.334;21.936;2023-10-31T08:41:17;2.58;;;1.35;;
53835;SDS011;39737;43.334;21.936;2023-10-31T08:44:06;1.90;;;0.90;;
53835;SDS011;39737;43.334;21.936;2023-10-31T08:46:55;3.80;;;1.63;;
53835;SDS011;39737;43.334;21.936;2023-10-31T08:49:41;7.40;;;2.47;;
53835;SDS011;39737;43.334;21.936;2023-10-31T08:52:27;5.93;;;1.77;;
53835;SDS011;39737;43.334;21.936;2023-10-31T08:55:13;5.25;;;1.30;;
53835;SDS011;39737;43.334;21.936;2023-10-31T08:58:00;3.40;;;2.20;;
53835;SDS011;39737;43.334;21.936;2023-10-31T09:00:46;2.38;;;1.73;;
53835;SDS011;39737;43.334;21.936;2023-10-31T09:03:34;2.28;;;1.30;;
53835;SDS011;39737;43.334;21.936;2023-10-31T09:06:23;1.85;;;1.48;;
53835;SDS011;39737;43.334;21.936;2023-10-31T09:09:09;6.47;;;1.95;;
53835;SDS011;39737;43.334;21.936;2023-10-31T09:11:55;6.78;;;2.78;;
53835;SDS011;39737;43.334;21.936;2023-10-31T09:14:42;6.63;;;2.35;;
53835;SDS011;39737;43.334;21.936;2023-10-31T09:17:28;5.90;;;1.70;;
53835;SDS011;39737;43.334;21.936;2023-10-31T09:20:14;5.45;;;1.98;;
53835;SDS011;39737;43.334;21.936;2023-10-31T09:23:04;7.15;;;2.60;;
53835;SDS011;39737;43.334;21.936;2023-10-31T09:25:54;6.07;;;3.25;;
53835;SDS011;39737;43.334;21.936;2023-10-31T09:28:41;6.05;;;2.53;;
53835;SDS011;39737;43.334;21.936;2023-10-31T09:31:35;3.53;;;1.40;;
53835;SDS011;39737;43.334;21.936;2023-10-31T09:34:22;8.90;;;1.55;;
53835;SDS011;39737;43.334;21.936;2023-10-31T09:37:08;1.85;;;1.05;;
53835;SDS011;39737;43.334;21.936;2023-10-31T09:39:54;1.27;;;0.77;;
53835;SDS011;39737;43.334;21.936;2023-10-31T09:42:41;10.30;;;1.00;;
53835;SDS011;39737;43.334;21.936;2023-10-31T09:45:28;1.85;;;1.00;;
53835;SDS011;39737;43.334;21.936;2023-10-31T09:48:14;4.85;;;0.93;;
53835;SDS011;39737;43.334;21.936;2023-10-31T09:51:00;5.43;;;0.90;;
53835;SDS011;39737;43.334;21.936;2023-10-31T09:53:46;4.38;;;1.30;;
53835;SDS011;39737;43.334;21.936;2023-10-31T09:56:33;3.72;;;1.20;;
53835;SDS011;39737;43.334;21.936;2023-10-31T09:59:20;10.18;;;1.33;;
53835;SDS011;39737;43.334;21.936;2023-10-31T10:02:07;1.33;;;1.00;;
53835;SDS011;39737;43.334;21.936;2023-10-31T10:04:53;15.35;;;1.35;;
53835;SDS011;39737;43.334;21.936;2023-10-31T10:07:41;1.80;;;0.80;;
53835;SDS011;39737;43.334;21.936;2023-10-31T10:10:28;0.88;;;0.85;;
53835;SDS011;39737;43.334;21.936;2023-10-31T10:13:18;2.25;;;1.20;;
53835;SDS011;39737;43.334;21.936;2023-10-31T10:16:05;10.05;;;1.30;;
53835;SDS011;39737;43.334;21.936;2023-10-31T10:18:54;3.85;;;1.13;;
53835;SDS011;39737;43.334;21.936;2023-10-31T10:21:47;2.20;;;1.00;;
53835;SDS011;39737;43.334;21.936;2023-10-31T10:24:34;0.77;;;0.55;;
53835;SDS011;39737;43.334;21.936;2023-10-31T10:27:21;1.80;;;0.73;;
53835;SDS011;39737;43.334;21.936;2023-10-31T10:30:07;1.90;;;0.63;;
53835;SDS011;39737;43.334;21.936;2023-10-31T10:32:54;1.98;;;0.82;;
53835;SDS011;39737;43.334;21.936;2023-10-31T10:35:40;1.80;;;1.25;;
53835;SDS011;39737;43.334;21.936;2023-10-31T10:38:27;1.65;;;0.85;;
53835;SDS011;39737;43.334;21.936;2023-10-31T10:41:14;4.82;;;2.00;;
53835;SDS011;39737;43.334;21.936;2023-10-31T10:44:06;5.70;;;2.85;;
53835;SDS011;39737;43.334;21.936;2023-10-31T10:46:54;10.60;;;2.30;;
53835;SDS011;39737;43.334;21.936;2023-10-31T10:49:41;3.50;;;1.40;;
53835;SDS011;39737;43.334;21.936;2023-10-31T10:52:29;3.15;;;0.90;;
53835;SDS011;39737;43.334;21.936;2023-10-31T10:55:24;4.88;;;0.65;;
53835;SDS011;39737;43.334;21.936;2023-10-31T11:00:58;6.50;;;1.15;;
53835;SDS011;39737;43.334;21.936;2023-10-31T11:03:45;1.70;;;1.00;;
53835;SDS011;39737;43.334;21.936;2023-10-31T11:06:35;4.38;;;1.25;;
53835;SDS011;39737;43.334;21.936;2023-10-31T11:09:30;4.53;;;1.23;;
53835;SDS011;39737;43.334;21.936;2023-10-31T11:12:17;3.30;;;0.93;;
53835;SDS011;39737;43.334;21.936;2023-10-31T11:15:05;4.95;;;0.75;;
53835;SDS011;39737;43.334;21.936;2023-10-31T11:17:55;2.45;;;0.70;;
53835;SDS011;39737;43.334;21.936;2023-10-31T11:20:41;1.00;;;0.90;;
53835;SDS011;39737;43.334;21.936;2023-10-31T11:23:27;9.73;;;1.33;;
53835;SDS011;39737;43.334;21.936;2023-10-31T11:26:14;0.88;;;0.55;;
53835;SDS011;39737;43.334;21.936;2023-10-31T11:29:04;2.83;;;0.90;;
53835;SDS011;39737;43.334;21.936;2023-10-31T11:31:59;3.10;;;1.00;;
53835;SDS011;39737;43.334;21.936;2023-10-31T11:34:46;2.08;;;0.90;;
53835;SDS011;39737;43.334;21.936;2023-10-31T11:37:33;1.50;;;1.10;;
53835;SDS011;39737;43.334;21.936;2023-10-31T11:40:20;1.20;;;0.95;;
53835;SDS011;39737;43.334;21.936;2023-10-31T11:43:08;2.92;;;0.77;;
53835;SDS011;39737;43.334;21.936;2023-10-31T11:45:56;1.08;;;0.70;;
53835;SDS011;39737;43.334;21.936;2023-10-31T11:48:46;3.42;;;1.10;;
53835;SDS011;39737;43.334;21.936;2023-10-31T11:51:37;3.83;;;1.95;;
53835;SDS011;39737;43.334;21.936;2023-10-31T11:54:22;9.43;;;2.03;;
53835;SDS011;39737;43.334;21.936;2023-10-31T11:57:08;4.97;;;2.55;;
53835;SDS011;39737;43.334;21.936;2023-10-31T11:59:54;2.22;;;1.30;;
53835;SDS011;39737;43.334;21.936;2023-10-31T12:02:41;3.20;;;2.33;;
53835;SDS011;39737;43.334;21.936;2023-10-31T12:05:27;7.75;;;3.83;;
53835;SDS011;39737;43.334;21.936;2023-10-31T12:08:13;7.07;;;3.10;;
53835;SDS011;39737;43.334;21.936;2023-10-31T12:11:10;2.25;;;1.27;;
53835;SDS011;39737;43.334;21.936;2023-10-31T12:14:00;6.13;;;1.38;;
53835;SDS011;39737;43.334;21.936;2023-10-31T12:16:47;3.33;;;1.73;;
53835;SDS011;39737;43.334;21.936;2023-10-31T12:19:34;3.53;;;1.20;;
53835;SDS011;39737;43.334;21.936;2023-10-31T12:22:20;2.75;;;0.93;;
53835;SDS011;39737;43.334;21.936;2023-10-31T12:25:08;2.85;;;1.55;;
53835;SDS011;39737;43.334;21.936;2023-10-31T12:27:57;2.88;;;1.40;;
53835;SDS011;39737;43.334;21.936;2023-10-31T12:30:46;2.47;;;1.63;;
53835;SDS011;39737;43.334;21.936;2023-10-31T12:33:33;4.40;;;2.28;;
53835;SDS011;39737;43.334;21.936;2023-10-31T12:36:22;8.20;;;2.70;;
53835;SDS011;39737;43.334;21.936;2023-10-31T12:39:16;2.70;;;1.50;;
53835;SDS011;39737;43.334;21.936;2023-10-31T12:42:05;2.15;;;1.55;;
53835;SDS011;39737;43.334;21.936;2023-10-31T12:44:52;1.20;;;1.10;;
53835;SDS011;39737;43.334;21.936;2023-10-31T12:47:38;1.63;;;1.20;;
53835;SDS011;39737;43.334;21.936;2023-10-31T12:50:24;9.18;;;1.65;;
53835;SDS011;39737;43.334;21.936;2023-10-31T12:53:10;2.75;;;1.60;;
53835;SDS011;39737;43.334;21.936;2023-10-31T12:55:57;1.98;;;1.52;;
53835;SDS011;39737;43.334;21.936;2023-10-31T12:58:43;1.92;;;1.10;;
53835;SDS011;39737;43.334;21.936;2023-10-31T13:01:30;1.70;;;1.27;;
53835;SDS011;39737;43.334;21.936;2023-10-31T13:04:27;8.10;;;1.02;;
53835;SDS011;39737;43.334;21.936;2023-10-31T13:07:20;3.63;;;1.30;;
53835;SDS011;39737;43.334;21.936;2023-10-31T13:10:16;3.15;;;1.92;;
53835;SDS011;39737;43.334;21.936;2023-10-31T13:13:02;2.78;;;1.60;;
53835;SDS011;39737;43.334;21.936;2023-10-31T13:15:48;1.20;;;1.10;;
53835;SDS011;39737;43.334;21.936;2023-10-31T13:18:35;2.50;;;1.90;;
53835;SDS011;39737;43.334;21.936;2023-10-31T13:21:51;4.78;;;1.55;;
53835;SDS011;39737;43.334;21.936;2023-10-31T13:24:48;3.53;;;2.15;;
53835;SDS011;39737;43.334;21.936;2023-10-31T13:27:37;2.75;;;1.52;;
53835;SDS011;39737;43.334;21.936;2023-10-31T13:30:51;2.00;;;0.93;;
53835;SDS011;39737;43.334;21.936;2023-10-31T13:33:38;6.32;;;1.20;;
53835;SDS011;39737;43.334;21.936;2023-10-31T13:36:24;1.92;;;1.42;;
53835;SDS011;39737;43.334;21.936;2023-10-31T13:39:10;4.20;;;1.20;;
53835;SDS011;39737;43.334;21.936;2023-10-31T13:42:02;6.10;;;1.10;;
53835;SDS011;39737;43.334;21.936;2023-10-31T13:44:49;6.85;;;1.63;;
53835;SDS011;39737;43.334;21.936;2023-10-31T13:47:34;3.72;;;1.10;;
53835;SDS011;39737;43.334;21.936;2023-10-31T13:50:24;3.08;;;1.05;;
53835;SDS011;39737;43.334;21.936;2023-10-31T13:53:14;1.70;;;0.88;;
53835;SDS011;39737;43.334;21.936;2023-10-31T13:56:06;1.30;;;1.00;;
53835;SDS011;39737;43.334;21.936;2023-10-31T13:59:08;9.02;;;1.60;;
53835;SDS011;39737;43.334;21.936;2023-10-31T14:01:55;1.67;;;0.85;;
53835;SDS011;39737;43.334;21.936;2023-10-31T14:04:41;1.77;;;1.00;;
53835;SDS011;39737;43.334;21.936;2023-10-31T14:07:40;9.05;;;1.25;;
53835;SDS011;39737;43.334;21.936;2023-10-31T14:10:27;5.32;;;2.70;;
53835;SDS011;39737;43.334;21.936;2023-10-31T14:13:30;6.55;;;1.75;;
53835;SDS011;39737;43.334;21.936;2023-10-31T14:16:17;8.52;;;3.70;;
53835;SDS011;39737;43.334;21.936;2023-10-31T14:19:07;8.35;;;3.33;;
53835;SDS011;39737;43.334;21.936;2023-10-31T14:21:53;2.50;;;1.88;;
53835;SDS011;39737;43.334;21.936;2023-10-31T14:24:41;3.72;;;2.22;;
53835;SDS011;39737;43.334;21.936;2023-10-31T14:27:27;4.85;;;2.42;;
53835;SDS011;39737;43.334;21.936;2023-10-31T14:30:14;5.28;;;1.75;;
53835;SDS011;39737;43.334;21.936;2023-10-31T14:33:01;1.65;;;1.10;;
53835;SDS011;39737;43.334;21.936;2023-10-31T14:35:47;7.57;;;1.60;;
53835;SDS011;39737;43.334;21.936;2023-10-31T14:38:33;10.32;;;1.73;;
53835;SDS011;39737;43.334;21.936;2023-10-31T14:41:20;7.88;;;1.30;;
53835;SDS011;39737;43.334;21.936;2023-10-31T14:44:06;2.28;;;1.50;;
53835;SDS011;39737;43.334;21.936;2023-10-31T14:46:54;3.53;;;1.52;;
53835;SDS011;39737;43.334;21.936;2023-10-31T14:49:40;4.88;;;1.45;;
53835;SDS011;39737;43.334;21.936;2023-10-31T14:52:26;4.63;;;1.50;;
53835;SDS011;39737;43.334;21.936;2023-10-31T14:55:13;4.32;;;2.67;;
53835;SDS011;39737;43.334;21.936;2023-10-31T14:57:59;2.60;;;1.40;;
53835;SDS011;39737;43.334;21.936;2023-10-31T15:00:46;3.33;;;2.00;;
53835;SDS011;39737;43.334;21.936;2023-10-31T15:03:32;5.63;;;2.67;;
53835;SDS011;39737;43.334;21.936;2023-10-31T15:14:01;24.55;;;8.30;;
53835;SDS011;39737;43.334;21.936;2023-10-31T15:16:47;21.00;;;6.13;;
53835;SDS011;39737;43.334;21.936;2023-10-31T15:19:34;6.10;;;2.47;;
53835;SDS011;39737;43.334;21.936;2023-10-31T15:22:20;4.47;;;1.75;;
53835;SDS011;39737;43.334;21.936;2023-10-31T15:25:07;4.32;;;1.52;;
53835;SDS011;39737;43.334;21.936;2023-10-31T15:27:54;85.63;;;18.80;;
53835;SDS011;39737;43.334;21.936;2023-10-31T15:30:41;46.55;;;11.55;;
53835;SDS011;39737;43.334;21.936;2023-10-31T15:33:27;13.85;;;3.95;;
53835;SDS011;39737;43.334;21.936;2023-10-31T15:36:14;13.10;;;4.95;;
53835;SDS011;39737;43.334;21.936;2023-10-31T15:39:00;18.73;;;4.72;;
53835;SDS011;39737;43.334;21.936;2023-10-31T15:41:47;8.23;;;3.22;;
53835;SDS011;39737;43.334;21.936;2023-10-31T15:44:34;12.15;;;4.10;;
53835;SDS011;39737;43.334;21.936;2023-10-31T15:47:21;16.42;;;5.53;;
53835;SDS011;39737;43.334;21.936;2023-10-31T15:50:07;13.45;;;5.40;;
53835;SDS011;39737;43.334;21.936;2023-10-31T15:52:54;21.65;;;5.70;;
53835;SDS011;39737;43.334;21.936;2023-10-31T15:55:41;20.05;;;5.80;;
53835;SDS011;39737;43.334;21.936;2023-10-31T15:58:31;8.07;;;3.03;;
53835;SDS011;39737;43.334;21.936;2023-10-31T16:01:17;22.42;;;5.20;;
53835;SDS011;39737;43.334;21.936;2023-10-31T16:04:04;5.85;;;2.28;;
53835;SDS011;39737;43.334;21.936;2023-10-31T16:06:51;13.18;;;5.65;;
53835;SDS011;39737;43.334;21.936;2023-10-31T16:09:38;10.98;;;4.53;;
53835;SDS011;39737;43.334;21.936;2023-10-31T16:12:27;7.07;;;3.13;;
53835;SDS011;39737;43.334;21.936;2023-10-31T16:15:14;7.47;;;3.17;;
53835;SDS011;39737;43.334;21.936;2023-10-31T16:18:00;5.05;;;2.42;;
53835;SDS011;39737;43.334;21.936;2023-10-31T16:20:46;3.88;;;2.03;;
53835;SDS011;39737;43.334;21.936;2023-10-31T16:23:34;10.50;;;2.65;;
53835;SDS011;39737;43.334;21.936;2023-10-31T16:26:21;8.02;;;2.78;;
53835;SDS011;39737;43.334;21.936;2023-10-31T16:29:08;3.67;;;2.15;;
53835;SDS011;39737;43.334;21.936;2023-10-31T16:34:46;8.63;;;2.88;;
53835;SDS011;39737;43.334;21.936;2023-10-31T16:37:35;5.07;;;3.15;;
53835;SDS011;39737;43.334;21.936;2023-10-31T16:40:21;11.88;;;4.45;;
53835;SDS011;39737;43.334;21.936;2023-10-31T16:43:10;10.27;;;5.95;;
53835;SDS011;39737;43.334;21.936;2023-10-31T16:45:56;12.98;;;5.70;;
53835;SDS011;39737;43.334;21.936;2023-10-31T16:48:43;9.77;;;5.35;;
53835;SDS011;39737;43.334;21.936;2023-10-31T16:51:32;9.57;;;4.57;;
53835;SDS011;39737;43.334;21.936;2023-10-31T16:54:18;4.57;;;2.35;;
53835;SDS011;39737;43.334;21.936;2023-10-31T16:57:05;5.03;;;1.75;;
53835;SDS011;39737;43.334;21.936;2023-10-31T16:59:52;4.28;;;2.35;;
53835;SDS011;39737;43.334;21.936;2023-10-31T17:02:39;5.53;;;2.63;;
53835;SDS011;39737;43.334;21.936;2023-10-31T17:05:26;6.25;;;2.83;;
53835;SDS011;39737;43.334;21.936;2023-10-31T17:08:13;6.13;;;2.90;;
53835;SDS011;39737;43.334;21.936;2023-10-31T17:11:01;10.27;;;4.38;;
53835;SDS011;39737;43.334;21.936;2023-10-31T17:13:47;11.65;;;4.63;;
53835;SDS011;39737;43.334;21.936;2023-10-31T17:16:34;10.63;;;6.40;;